Time;durP1;ratioP1;P1;durP2;ratioP2;P2;SDS_P1;SDS_P2;PMS_P1;PMS_P2;Temp;Humidity;BMP_temperature;BMP_pressure;BME280_temperature;BME280_humidity;BME280_pressure;Samples;Min_cycle;Max_cycle;Signal;HPM_P1;HPM_P2
2023/10/14 04:00:48;;;;;;;3.93;3.20;;;20.20;73.70;;;;;;5950048;23;20477;-76
2023/10/14 04:03:29;;;;;;;3.73;3.40;;;20.10;74.30;;;;;;4977938;28;20469;-75
2023/10/14 04:06:00;;;;;;;3.60;3.30;;;20.10;74.40;;;;;;4977940;28;20426;-77
2023/10/14 04:08:30;;;;;;;3.20;2.23;;;20.10;74.60;;;;;;4978286;28;20446;-76
2023/10/14 04:11:11;;;;;;;4.10;3.00;;;20.10;74.80;;;;;;4977715;28;20556;-77
2023/10/14 04:13:40;;;;;;;3.90;3.20;;;20.10;74.90;;;;;;4977961;28;20493;-76
2023/10/14 04:16:12;;;;;;;4.77;3.60;;;20.10;74.90;;;;;;4978270;28;20452;-72
2023/10/14 04:18:41;;;;;;;4.97;3.97;;;20.10;75.00;;;;;;4977552;28;20422;-73
2023/10/14 04:21:15;;;;;;;5.00;3.10;;;20.00;75.10;;;;;;4977375;28;20500;-74
2023/10/14 04:23:59;;;;;;;4.20;3.30;;;20.00;75.10;;;;;;4977590;28;20443;-74
2023/10/14 04:26:30;;;;;;;3.60;3.27;;;20.10;75.00;;;;;;4977546;28;20466;-73
2023/10/14 04:28:58;;;;;;;4.17;3.30;;;20.10;74.90;;;;;;4977472;28;20459;-74
2023/10/14 04:31:39;;;;;;;5.97;3.60;;;20.10;74.90;;;;;;4977300;28;20466;-74
2023/10/14 04:34:07;;;;;;;3.50;2.80;;;20.10;74.90;;;;;;4977398;28;20426;-73
2023/10/14 04:36:38;;;;;;;4.10;3.00;;;20.10;74.80;;;;;;4976954;28;20943;-74
2023/10/14 04:39:13;;;;;;;5.37;3.43;;;20.00;74.60;;;;;;4977287;28;20458;-74
2023/10/14 04:41:48;;;;;;;4.40;3.17;;;19.90;74.30;;;;;;4976769;28;20862;-74
2023/10/14 04:44:14;;;;;;;4.10;3.20;;;19.90;74.60;;;;;;4976978;28;20438;-75
2023/10/14 04:46:54;;;;;;;4.80;4.10;;;20.00;74.30;;;;;;4977295;28;20458;-74
2023/10/14 04:49:37;;;;;;;3.57;2.80;;;20.00;74.10;;;;;;4977069;28;20434;-74
2023/10/14 04:52:06;;;;;;;3.70;3.27;;;20.10;73.80;;;;;;4977035;28;20828;-73
2023/10/14 04:54:35;;;;;;;4.03;2.70;;;20.10;73.50;;;;;;4976568;28;20452;-74
2023/10/14 04:57:19;;;;;;;3.33;2.73;;;20.10;73.20;;;;;;4976783;28;20450;-74
2023/10/14 04:59:51;;;;;;;4.13;2.60;;;20.20;72.70;;;;;;4976921;28;20427;-74
2023/10/14 05:02:21;;;;;;;4.00;2.70;;;20.20;72.20;;;;;;4976201;28;20500;-73
2023/10/14 05:04:49;;;;;;;3.07;2.60;;;20.10;72.00;;;;;;4976698;28;20469;-74
2023/10/14 05:07:16;;;;;;;3.50;2.20;;;20.10;72.00;;;;;;4976757;28;20533;-74
2023/10/14 05:09:49;;;;;;;3.17;2.47;;;20.10;72.00;;;;;;4976694;28;20473;-74
2023/10/14 05:12:24;;;;;;;4.20;3.13;;;20.10;72.00;;;;;;4976267;28;20994;-73
2023/10/14 05:14:51;;;;;;;4.10;3.00;;;20.10;71.90;;;;;;4976620;28;20437;-75
2023/10/14 05:17:25;;;;;;;2.90;2.53;;;20.30;71.50;;;;;;4976488;28;20465;-74
2023/10/14 05:19:57;;;;;;;3.37;2.43;;;20.20;71.40;;;;;;4976518;28;20466;-74
2023/10/14 05:22:26;;;;;;;4.57;2.30;;;20.30;71.40;;;;;;4976285;28;20490;-74
2023/10/14 05:24:58;;;;;;;3.10;2.80;;;20.20;71.30;;;;;;4976384;28;20462;-74
2023/10/14 05:27:35;;;;;;;3.30;2.80;;;20.20;71.40;;;;;;4976400;28;20435;-74
2023/10/14 05:30:06;;;;;;;4.30;2.43;;;20.30;71.20;;;;;;4976365;28;20477;-74
2023/10/14 05:32:36;;;;;;;3.80;2.57;;;20.40;70.90;;;;;;4976205;28;20466;-73
2023/10/14 05:35:09;;;;;;;2.90;2.67;;;20.40;70.70;;;;;;4975827;28;20831;-74
2023/10/14 05:37:36;;;;;;;2.87;2.13;;;20.40;70.70;;;;;;4977009;28;20505;-75
2023/10/14 05:40:13;;;;;;;3.93;2.20;;;20.40;70.80;;;;;;4976301;28;20545;-74
2023/10/14 05:42:43;;;;;;;3.00;2.70;;;20.40;71.00;;;;;;4975958;28;20493;-75
2023/10/14 05:45:11;;;;;;;3.43;2.77;;;20.40;71.20;;;;;;4976001;28;20500;-73
2023/10/14 05:47:40;;;;;;;3.27;2.57;;;20.40;71.60;;;;;;4975954;28;20456;-74
2023/10/14 05:50:14;;;;;;;2.70;2.10;;;20.30;72.00;;;;;;4975656;28;20450;-74
2023/10/14 05:52:43;;;;;;;3.93;2.50;;;20.30;72.50;;;;;;4975821;28;20484;-73
2023/10/14 05:55:10;;;;;;;4.50;2.80;;;20.00;73.50;;;;;;4974966;28;20450;-73
2023/10/14 05:57:39;;;;;;;3.10;2.43;;;20.20;73.20;;;;;;4975772;28;20486;-73
2023/10/14 06:00:20;;;;;;;5.30;3.20;;;20.40;73.10;;;;;;4975726;28;20450;-75
2023/10/14 06:02:49;;;;;;;3.30;3.00;;;20.40;73.50;;;;;;4975284;28;20568;-74
2023/10/14 06:05:16;;;;;;;3.80;2.60;;;20.30;73.90;;;;;;4975911;28;20445;-74
2023/10/14 06:07:46;;;;;;;3.40;2.53;;;20.40;73.80;;;;;;4975615;28;20493;-74
2023/10/14 06:10:14;;;;;;;4.43;3.00;;;20.50;73.90;;;;;;4975492;28;20450;-74
2023/10/14 06:12:44;;;;;;;2.70;2.10;;;20.60;73.70;;;;;;4975497;28;20462;-75
2023/10/14 06:15:11;;;;;;;3.03;2.50;;;20.70;73.10;;;;;;4976332;28;20469;-74
2023/10/14 06:17:39;;;;;;;4.47;2.63;;;20.80;73.00;;;;;;4975351;28;20453;-74
2023/10/14 06:20:13;;;;;;;3.60;3.00;;;20.90;72.70;;;;;;4975333;28;20460;-74
2023/10/14 06:22:40;;;;;;;4.03;2.87;;;21.00;72.60;;;;;;4975258;28;20521;-74
2023/10/14 06:25:07;;;;;;;3.43;2.50;;;21.00;72.70;;;;;;4975227;28;20454;-74
2023/10/14 06:27:34;;;;;;;4.20;3.00;;;21.10;72.40;;;;;;4975237;28;20453;-74
2023/10/14 06:30:01;;;;;;;5.40;3.10;;;21.10;72.20;;;;;;4975178;28;20449;-75
2023/10/14 06:32:29;;;;;;;3.30;2.83;;;21.20;72.10;;;;;;4974992;28;20553;-75
2023/10/14 06:34:58;;;;;;;3.93;2.53;;;21.30;72.10;;;;;;4974818;28;20513;-75
2023/10/14 06:37:27;;;;;;;3.30;3.00;;;21.30;72.20;;;;;;4975088;28;20446;-73
2023/10/14 06:39:54;;;;;;;4.80;2.70;;;21.40;71.90;;;;;;4975002;28;20442;-74
2023/10/14 06:42:22;;;;;;;3.33;2.93;;;21.30;72.00;;;;;;4975094;28;20492;-75
2023/10/14 06:44:51;;;;;;;3.90;3.00;;;21.40;72.00;;;;;;4974962;28;20450;-74
2023/10/14 06:47:21;;;;;;;4.07;3.00;;;21.30;73.10;;;;;;4974909;28;20450;-75
2023/10/14 06:49:49;;;;;;;3.40;3.10;;;21.30;73.30;;;;;;4975134;28;20524;-73
2023/10/14 06:52:18;;;;;;;5.00;3.13;;;21.30;73.10;;;;;;4974783;28;20466;-75
2023/10/14 06:54:46;;;;;;;3.40;3.10;;;21.40;73.00;;;;;;4974781;28;20477;-75
2023/10/14 06:57:14;;;;;;;4.27;3.03;;;21.30;73.40;;;;;;4975095;28;20500;-76
2023/10/14 06:59:41;;;;;;;4.20;2.67;;;21.40;72.80;;;;;;4974649;28;20481;-76
2023/10/14 07:02:10;;;;;;;4.20;3.07;;;21.40;72.70;;;;;;4974385;28;20537;-75
2023/10/14 07:04:40;;;;;;;3.43;3.13;;;21.30;72.90;;;;;;4974583;28;20544;-75
2023/10/14 07:07:09;;;;;;;3.40;2.70;;;21.20;73.10;;;;;;4975347;28;20442;-75
2023/10/14 07:09:37;;;;;;;5.33;3.10;;;21.10;73.20;;;;;;4974534;28;20593;-76
2023/10/14 07:12:13;;;;;;;3.50;2.87;;;21.00;73.50;;;;;;4974357;28;20520;-76
2023/10/14 07:14:40;;;;;;;3.30;2.80;;;20.80;72.70;;;;;;4974473;28;20915;-75
2023/10/14 07:17:07;;;;;;;3.50;2.83;;;20.70;73.00;;;;;;4974466;28;20449;-76
2023/10/14 07:19:35;;;;;;;5.67;2.70;;;20.60;74.00;;;;;;4974486;28;20482;-74
2023/10/14 07:22:07;;;;;;;3.70;2.80;;;20.60;74.50;;;;;;4974241;28;20497;-76
2023/10/14 07:24:35;;;;;;;4.43;3.33;;;20.60;74.60;;;;;;4974445;28;20430;-76
2023/10/14 07:27:03;;;;;;;3.77;2.50;;;20.60;74.20;;;;;;4974357;28;20448;-75
2023/10/14 07:29:31;;;;;;;3.57;2.87;;;20.60;74.30;;;;;;4974568;28;20485;-75
2023/10/14 07:31:58;;;;;;;2.63;2.30;;;20.70;74.40;;;;;;4973958;28;20874;-75
2023/10/14 07:34:24;;;;;;;4.20;2.90;;;20.80;74.50;;;;;;4974272;28;20452;-75
2023/10/14 07:36:53;;;;;;;4.03;2.67;;;21.10;73.30;;;;;;4974274;28;20449;-76
2023/10/14 07:39:29;;;;;;;3.80;3.27;;;22.20;70.60;;;;;;4974324;28;20509;-74
2023/10/14 07:41:55;;;;;;;3.13;2.20;;;23.10;67.20;;;;;;4974196;28;20496;-74
2023/10/14 07:44:23;;;;;;;4.30;2.40;;;23.60;65.50;;;;;;4973950;28;20446;-72
2023/10/14 07:46:53;;;;;;;5.53;2.53;;;23.30;65.70;;;;;;4973913;28;20986;-72
2023/10/14 07:49:21;;;;;;;3.13;2.00;;;23.40;65.40;;;;;;4974144;28;20446;-73
2023/10/14 07:51:47;;;;;;;2.73;2.43;;;23.40;66.20;;;;;;4973813;28;20967;-72
2023/10/14 07:54:14;;;;;;;2.70;1.97;;;23.40;65.10;;;;;;4974099;28;20476;-72
2023/10/14 07:56:43;;;;;;;2.47;1.93;;;23.30;65.30;;;;;;4974050;28;20496;-72
2023/10/14 07:59:10;;;;;;;3.43;2.10;;;23.00;65.40;;;;;;4974074;28;20453;-74
2023/10/14 08:01:38;;;;;;;4.13;2.23;;;22.80;66.40;;;;;;4973825;28;20481;-72
2023/10/14 08:04:08;;;;;;;2.40;1.80;;;22.30;67.60;;;;;;4974070;28;20532;-72
2023/10/14 08:06:40;;;;;;;2.90;1.90;;;21.90;68.40;;;;;;4974032;28;20440;-72
2023/10/14 08:09:15;;;;;;;3.53;1.60;;;21.80;68.40;;;;;;4974007;28;20441;-72
2023/10/14 08:11:42;;;;;;;2.53;2.10;;;21.70;68.60;;;;;;4973981;28;20549;-73
2023/10/14 08:14:09;;;;;;;2.20;1.63;;;21.60;69.20;;;;;;4973893;28;20453;-73
2023/10/14 08:16:37;;;;;;;3.27;1.60;;;21.40;70.00;;;;;;4973919;28;20457;-72
2023/10/14 08:19:06;;;;;;;2.30;1.60;;;21.40;71.20;;;;;;4975979;28;20827;-72
2023/10/14 08:21:36;;;;;;;3.60;2.13;;;21.10;70.70;;;;;;4977073;28;20857;-72
2023/10/14 08:24:05;;;;;;;2.50;1.80;;;20.60;72.20;;;;;;4977572;28;20496;-72
2023/10/14 08:26:34;;;;;;;2.00;1.20;;;20.40;72.80;;;;;;4978062;28;20455;-72
2023/10/14 08:29:01;;;;;;;2.33;1.27;;;20.40;72.30;;;;;;4977409;28;20504;-71
2023/10/14 08:31:27;;;;;;;3.50;1.40;;;20.10;72.60;;;;;;4977010;28;20979;-71
2023/10/14 08:33:54;;;;;;;2.40;1.67;;;20.00;73.90;;;;;;4977047;28;20927;-71
2023/10/14 08:36:21;;;;;;;2.80;1.77;;;20.00;75.30;;;;;;4977282;28;20446;-71
2023/10/14 08:38:49;;;;;;;3.27;2.20;;;20.00;75.30;;;;;;4977251;28;20446;-72
2023/10/14 08:41:16;;;;;;;2.77;2.37;;;20.00;75.90;;;;;;4977122;28;20881;-74
2023/10/14 08:43:49;;;;;;;3.00;2.57;;;20.00;76.10;;;;;;4977132;28;20493;-74
2023/10/14 08:46:18;;;;;;;3.10;2.20;;;20.10;76.90;;;;;;4977419;28;20427;-75
2023/10/14 08:48:50;;;;;;;3.13;2.17;;;20.20;77.60;;;;;;4977077;28;20837;-75
2023/10/14 08:51:19;;;;;;;4.17;2.30;;;20.20;77.60;;;;;;4976687;28;20971;-75
2023/10/14 08:53:53;;;;;;;3.20;2.47;;;20.20;78.00;;;;;;4977026;28;20446;-74
2023/10/14 08:56:22;;;;;;;3.67;2.00;;;20.30;78.10;;;;;;4976908;28;20433;-74
2023/10/14 08:58:49;;;;;;;2.93;2.53;;;20.30;77.30;;;;;;4976881;28;20450;-74
2023/10/14 09:01:18;;;;;;;3.03;2.10;;;20.60;77.00;;;;;;4976496;28;20496;-72
2023/10/14 09:03:46;;;;;;;2.80;2.30;;;20.90;76.50;;;;;;4976709;28;20482;-71
2023/10/14 09:06:12;;;;;;;3.87;2.60;;;21.10;75.10;;;;;;4976440;28;20504;-70
2023/10/14 09:08:42;;;;;;;3.07;2.33;;;21.20;74.90;;;;;;4976788;28;20454;-71
2023/10/14 09:11:26;;;;;;;3.73;2.60;;;21.40;73.70;;;;;;4976613;28;20986;-71
2023/10/14 09:14:01;;;;;;;3.23;2.70;;;21.40;73.80;;;;;;4976686;28;20430;-73
2023/10/14 09:16:32;;;;;;;3.10;2.10;;;21.40;73.40;;;;;;4976555;28;20434;-72
2023/10/14 09:18:59;;;;;;;3.83;1.93;;;21.10;73.90;;;;;;4976586;28;20422;-70
2023/10/14 09:21:26;;;;;;;4.70;2.10;;;21.00;75.10;;;;;;4976375;28;20466;-70
2023/10/14 09:23:53;;;;;;;4.33;2.03;;;21.00;75.10;;;;;;4975996;28;20474;-72
2023/10/14 09:26:21;;;;;;;3.80;1.90;;;20.80;74.60;;;;;;4977136;28;20446;-70
2023/10/14 09:28:52;;;;;;;2.50;2.00;;;20.90;75.00;;;;;;4975817;28;20474;-73
2023/10/14 09:31:18;;;;;;;2.30;1.30;;;21.10;74.00;;;;;;4975226;28;20469;-73
2023/10/14 09:33:46;;;;;;;2.63;1.03;;;21.00;73.50;;;;;;4976271;28;20450;-73
2023/10/14 09:36:14;;;;;;;1.73;0.70;;;20.60;74.50;;;;;;4976276;28;20450;-76
2023/10/14 09:38:43;;;;;;;2.10;0.90;;;20.00;76.00;;;;;;4976165;28;20489;-74
2023/10/14 09:41:11;;;;;;;1.70;0.80;;;19.60;76.90;;;;;;4976121;28;20449;-73
2023/10/14 09:43:42;;;;;;;1.73;1.00;;;19.30;78.40;;;;;;4976053;28;20478;-71
2023/10/14 09:46:12;;;;;;;1.60;0.70;;;19.00;79.20;;;;;;4976088;28;20521;-73
2023/10/14 09:48:40;;;;;;;1.70;0.77;;;18.80;79.70;;;;;;4975966;28;20442;-71
2023/10/14 09:51:08;;;;;;;1.97;0.90;;;18.60;80.80;;;;;;4975849;28;20466;-71
2023/10/14 09:53:36;;;;;;;3.07;0.90;;;18.60;81.00;;;;;;4975882;28;20445;-71
2023/10/14 09:56:05;;;;;;;2.33;0.93;;;18.40;81.30;;;;;;4975904;28;20450;-72
2023/10/14 09:58:34;;;;;;;2.27;1.00;;;18.40;81.70;;;;;;4976031;28;20488;-71
2023/10/14 10:01:03;;;;;;;1.73;0.80;;;18.20;81.90;;;;;;4975605;28;20591;-71
2023/10/14 10:03:36;;;;;;;1.70;0.87;;;18.00;82.70;;;;;;4975648;28;20490;-72
2023/10/14 10:06:30;;;;;;;1.77;0.83;;;18.10;82.80;;;;;;4975689;28;20434;-71
2023/10/14 10:09:25;;;;;;;1.80;0.80;;;18.20;82.60;;;;;;4975683;28;20505;-71
2023/10/14 10:11:54;;;;;;;1.60;0.70;;;18.20;82.40;;;;;;4975290;28;21014;-73
2023/10/14 10:14:23;;;;;;;1.50;0.60;;;18.30;81.60;;;;;;4975484;28;20474;-71
2023/10/14 10:16:53;;;;;;;2.30;1.00;;;18.30;82.00;;;;;;4976112;28;20501;-73
2023/10/14 10:19:22;;;;;;;1.60;0.70;;;18.40;82.30;;;;;;4975483;28;20446;-73
2023/10/14 10:22:13;;;;;;;2.17;1.00;;;18.40;81.50;;;;;;4975408;28;20513;-73
2023/10/14 10:24:43;;;;;;;1.90;1.00;;;18.40;82.00;;;;;;4975023;28;20951;-74
2023/10/14 10:27:11;;;;;;;2.47;0.70;;;18.60;81.60;;;;;;4975335;28;20828;-73
2023/10/14 10:29:50;;;;;;;1.70;0.80;;;18.70;81.40;;;;;;4974996;28;21120;-70
2023/10/14 10:32:21;;;;;;;1.93;0.90;;;18.80;81.50;;;;;;4975452;28;20465;-74
2023/10/14 10:35:13;;;;;;;1.50;0.60;;;19.00;80.80;;;;;;4975376;28;20513;-73
2023/10/14 10:37:47;;;;;;;1.60;0.70;;;19.10;80.20;;;;;;4975078;28;20430;-73
2023/10/14 10:40:17;;;;;;;1.50;0.60;;;19.30;80.10;;;;;;4974942;28;20439;-73
2023/10/14 10:42:48;;;;;;;1.50;0.60;;;19.20;80.10;;;;;;4974713;28;20544;-73
2023/10/14 10:45:20;;;;;;;1.60;0.80;;;19.20;79.10;;;;;;4975248;28;20426;-73
2023/10/14 10:47:54;;;;;;;1.50;0.60;;;19.00;78.90;;;;;;4975668;28;20445;-73
2023/10/14 10:50:23;;;;;;;1.50;0.60;;;19.00;79.60;;;;;;4975175;28;20438;-74
2023/10/14 10:52:54;;;;;;;1.70;0.70;;;18.80;79.30;;;;;;4975181;28;20442;-75
2023/10/14 10:55:24;;;;;;;2.63;0.90;;;18.60;79.50;;;;;;4974967;28;20445;-73
2023/10/14 10:58:00;;;;;;;1.60;0.70;;;18.50;80.20;;;;;;4975311;28;20509;-74
2023/10/14 11:00:30;;;;;;;1.50;0.70;;;18.40;80.80;;;;;;4976164;28;20469;-76
2023/10/14 11:02:57;;;;;;;1.80;0.70;;;18.40;80.80;;;;;;4975771;28;20521;-76
2023/10/14 11:05:25;;;;;;;2.53;0.70;;;18.40;81.30;;;;;;4976128;28;20481;-75
2023/10/14 11:07:53;;;;;;;1.47;0.60;;;18.30;81.20;;;;;;4975562;28;20488;-74
2023/10/14 11:10:23;;;;;;;1.67;0.70;;;18.30;80.80;;;;;;4975746;28;20446;-76
2023/10/14 11:12:49;;;;;;;1.67;0.60;;;18.20;81.30;;;;;;4975201;28;20446;-77
2023/10/14 11:15:20;;;;;;;2.33;0.80;;;18.10;80.30;;;;;;4976019;28;20450;-76
2023/10/14 11:17:47;;;;;;;1.70;0.70;;;18.00;80.70;;;;;;4976117;28;20497;-75
2023/10/14 11:20:15;;;;;;;2.00;0.80;;;17.80;81.40;;;;;;4974551;28;20892;-74
2023/10/14 11:22:43;;;;;;;2.13;1.00;;;17.70;81.90;;;;;;4975112;28;20540;-74
2023/10/14 11:25:13;;;;;;;1.70;0.70;;;17.80;82.40;;;;;;4975302;28;20450;-74
2023/10/14 11:27:41;;;;;;;4.80;0.87;;;17.80;82.00;;;;;;4974582;28;20456;-74
2023/10/14 11:30:11;;;;;;;2.07;0.87;;;17.70;82.00;;;;;;4975649;28;20932;-74
2023/10/14 11:32:46;;;;;;;1.60;0.80;;;17.60;82.30;;;;;;4974730;28;20466;-74
2023/10/14 11:35:16;;;;;;;1.60;0.80;;;17.50;82.80;;;;;;4975316;28;20429;-75
2023/10/14 11:37:49;;;;;;;1.57;0.70;;;17.40;82.80;;;;;;4974658;28;21010;-76
2023/10/14 11:40:16;;;;;;;1.60;0.70;;;17.30;83.00;;;;;;4975273;28;20430;-73
2023/10/14 11:42:43;;;;;;;1.80;0.70;;;17.50;82.80;;;;;;4974376;28;20466;-74
2023/10/14 11:45:10;;;;;;;1.70;0.67;;;17.50;83.20;;;;;;4974789;28;20446;-78
2023/10/14 11:47:39;;;;;;;2.07;0.70;;;17.60;83.00;;;;;;4975106;28;20438;-79
2023/10/14 11:50:12;;;;;;;1.60;0.60;;;17.70;82.90;;;;;;4975866;28;20544;-77
2023/10/14 11:52:40;;;;;;;1.70;0.70;;;17.60;82.50;;;;;;4975776;28;20556;-75
2023/10/14 11:55:11;;;;;;;1.50;0.70;;;17.60;82.30;;;;;;4979133;28;20453;-77
2023/10/14 11:57:38;;;;;;;1.63;0.60;;;17.60;82.80;;;;;;4978084;28;20431;-76
2023/10/14 12:00:10;;;;;;;1.50;0.67;;;17.50;82.90;;;;;;4977992;28;20552;-77
2023/10/14 12:02:36;;;;;;;2.43;0.70;;;17.50;82.40;;;;;;4977817;28;20489;-76
2023/10/14 12:05:04;;;;;;;1.50;0.63;;;17.40;83.10;;;;;;4977859;28;20494;-75
2023/10/14 12:07:32;;;;;;;2.13;0.60;;;17.40;83.60;;;;;;4977768;28;20454;-76
2023/10/14 12:09:59;;;;;;;1.63;0.73;;;17.50;83.40;;;;;;4977738;28;20446;-76
2023/10/14 12:12:28;;;;;;;7.97;7.33;;;17.50;83.60;;;;;;4977440;28;21001;-77
2023/10/14 12:14:54;;;;;;;1.60;0.70;;;17.60;83.40;;;;;;4977700;28;20445;-77
2023/10/14 12:17:21;;;;;;;1.70;0.60;;;17.70;83.20;;;;;;4977695;28;20449;-76
2023/10/14 12:19:48;;;;;;;1.60;0.70;;;17.70;82.70;;;;;;4977677;28;20481;-75
2023/10/14 12:22:15;;;;;;;1.50;0.63;;;17.80;83.10;;;;;;4977704;28;20466;-75
2023/10/14 12:24:41;;;;;;;1.50;0.70;;;17.70;82.50;;;;;;4977664;28;21022;-74
2023/10/14 12:27:13;;;;;;;1.50;0.70;;;17.60;82.70;;;;;;4977796;28;20970;-76
2023/10/14 12:29:42;;;;;;;1.60;0.60;;;17.50;82.80;;;;;;4978138;28;20438;-76
2023/10/14 12:32:12;;;;;;;1.90;0.80;;;17.60;83.10;;;;;;4977459;28;20470;-76
2023/10/14 12:34:43;;;;;;;2.13;0.70;;;17.60;83.10;;;;;;4977683;28;20430;-76
2023/10/14 12:37:17;;;;;;;1.80;0.67;;;17.70;83.10;;;;;;4977776;28;20434;-74
2023/10/14 12:39:48;;;;;;;1.60;0.67;;;17.80;83.00;;;;;;4978006;28;20433;-75
2023/10/14 12:42:17;;;;;;;1.50;0.60;;;17.80;82.40;;;;;;4977283;28;20480;-75
2023/10/14 12:44:49;;;;;;;1.80;0.80;;;17.80;82.30;;;;;;4977320;28;20486;-74
2023/10/14 12:47:20;;;;;;;1.70;0.80;;;17.70;81.70;;;;;;4977445;28;20485;-75
2023/10/14 12:49:48;;;;;;;1.50;0.60;;;17.50;81.90;;;;;;4977587;28;20485;-75
2023/10/14 12:52:19;;;;;;;1.50;0.60;;;17.50;81.90;;;;;;4977136;28;20476;-76
2023/10/14 12:54:51;;;;;;;2.53;0.70;;;17.60;82.00;;;;;;4976993;28;20785;-74
2023/10/14 12:57:18;;;;;;;1.50;0.60;;;17.60;82.20;;;;;;4977257;28;20434;-74
2023/10/14 12:59:46;;;;;;;1.60;0.70;;;17.50;81.70;;;;;;4977136;28;20469;-75
2023/10/14 13:02:17;;;;;;;1.70;0.80;;;17.40;82.40;;;;;;4977015;28;20474;-74
2023/10/14 13:04:44;;;;;;;1.50;0.60;;;17.30;82.00;;;;;;4976870;28;20474;-74
2023/10/14 13:07:11;;;;;;;1.60;0.70;;;17.20;81.10;;;;;;4976839;28;20457;-74
2023/10/14 13:09:39;;;;;;;2.10;0.80;;;17.20;81.30;;;;;;4977039;28;20450;-74
2023/10/14 13:12:15;;;;;;;1.50;0.60;;;17.10;81.70;;;;;;4976906;28;20645;-74
2023/10/14 13:14:42;;;;;;;1.50;0.60;;;17.10;81.50;;;;;;4977192;28;20426;-74
2023/10/14 13:17:10;;;;;;;1.50;0.63;;;17.00;82.30;;;;;;4977050;28;20442;-75
2023/10/14 13:19:37;;;;;;;1.50;0.70;;;17.10;81.70;;;;;;4977013;28;20450;-74
2023/10/14 13:22:09;;;;;;;2.00;0.67;;;16.90;81.50;;;;;;4976616;28;20466;-74
2023/10/14 13:24:36;;;;;;;1.70;0.63;;;16.90;81.70;;;;;;4977989;28;20847;-75
2023/10/14 13:27:03;;;;;;;1.90;1.10;;;16.90;82.30;;;;;;4977537;28;20454;-74
2023/10/14 13:29:30;;;;;;;1.80;0.70;;;17.00;82.60;;;;;;4976555;28;20449;-74
2023/10/14 13:31:56;;;;;;;1.57;0.70;;;17.10;81.60;;;;;;4976395;28;20466;-74
2023/10/14 13:34:24;;;;;;;2.10;0.80;;;17.20;80.50;;;;;;4976473;28;20453;-75
2023/10/14 13:36:51;;;;;;;1.70;0.70;;;17.20;80.40;;;;;;4976459;28;20449;-74
2023/10/14 13:39:18;;;;;;;1.50;0.70;;;17.10;80.00;;;;;;4976392;28;20442;-74
2023/10/14 13:41:48;;;;;;;1.90;0.73;;;16.90;79.20;;;;;;4976361;28;20473;-74
2023/10/14 13:44:15;;;;;;;1.60;0.80;;;16.80;79.80;;;;;;4976514;28;20482;-74
2023/10/14 13:46:42;;;;;;;1.60;0.70;;;16.80;80.90;;;;;;4976409;28;20450;-75
2023/10/14 13:49:09;;;;;;;1.60;0.70;;;16.90;81.40;;;;;;4975965;28;20985;-75
2023/10/14 13:51:40;;;;;;;2.07;0.70;;;16.60;79.70;;;;;;4976034;28;20473;-75
2023/10/14 13:54:07;;;;;;;4.17;1.00;;;16.30;80.50;;;;;;4977047;28;20451;-75
2023/10/14 13:56:34;;;;;;;1.83;0.70;;;16.10;80.90;;;;;;4976032;28;20485;-75
2023/10/14 13:59:01;;;;;;;2.03;0.93;;;16.10;80.00;;;;;;4976334;28;20449;-75
2023/10/14 14:01:28;;;;;;;2.07;0.90;;;16.00;78.80;;;;;;4975862;28;20481;-75
2023/10/14 14:03:58;;;;;;;1.80;0.80;;;15.90;77.00;;;;;;4976017;28;20501;-73
2023/10/14 14:06:26;;;;;;;1.70;0.90;;;16.00;77.30;;;;;;4975566;28;20890;-72
2023/10/14 14:08:55;;;;;;;1.50;0.70;;;16.00;77.20;;;;;;4975915;28;20453;-73
2023/10/14 14:11:23;;;;;;;2.97;0.80;;;15.90;77.00;;;;;;4975723;28;20470;-73
2023/10/14 14:13:50;;;;;;;1.80;1.00;;;15.90;78.40;;;;;;4975762;28;20449;-73
2023/10/14 14:16:18;;;;;;;2.13;1.20;;;15.90;75.90;;;;;;4974750;28;20852;-72
2023/10/14 14:18:48;;;;;;;2.40;1.10;;;15.60;76.10;;;;;;4975911;28;20457;-75
2023/10/14 14:21:15;;;;;;;1.90;0.90;;;15.60;75.60;;;;;;4975538;28;21050;-74
2023/10/14 14:23:43;;;;;;;2.00;0.90;;;15.60;77.60;;;;;;4975886;28;20442;-74
2023/10/14 14:26:16;;;;;;;2.10;1.00;;;15.60;77.00;;;;;;4976271;28;20458;-73
2023/10/14 14:28:43;;;;;;;3.03;1.20;;;15.60;77.10;;;;;;4975491;28;20927;-72
2023/10/14 14:31:12;;;;;;;2.20;1.10;;;15.60;76.80;;;;;;4975648;28;20525;-70
2023/10/14 14:33:40;;;;;;;2.43;1.13;;;15.50;78.40;;;;;;4975686;28;20456;-72
2023/10/14 14:36:10;;;;;;;2.60;1.20;;;15.60;78.90;;;;;;4975658;28;20473;-72
2023/10/14 14:38:38;;;;;;;2.20;1.30;;;15.60;79.00;;;;;;4976036;28;20453;-71
2023/10/14 14:41:07;;;;;;;2.23;1.00;;;15.60;78.60;;;;;;4975352;28;20469;-72
2023/10/14 14:43:37;;;;;;;2.00;0.90;;;15.60;78.00;;;;;;4974989;28;20948;-72
2023/10/14 14:46:07;;;;;;;1.97;1.00;;;15.70;76.80;;;;;;4975647;28;20451;-72
2023/10/14 14:48:34;;;;;;;2.10;1.20;;;16.50;76.30;;;;;;4975289;28;20849;-72
2023/10/14 14:51:01;;;;;;;2.30;1.20;;;18.30;70.80;;;;;;4975295;28;20473;-72
2023/10/14 14:53:27;;;;;;;2.47;1.30;;;20.10;65.70;;;;;;4975161;28;20932;-72
2023/10/14 14:55:54;;;;;;;2.30;1.30;;;20.40;64.20;;;;;;4975177;28;20438;-72
2023/10/14 14:58:21;;;;;;;2.47;1.33;;;20.00;65.30;;;;;;4975182;28;20446;-73
2023/10/14 15:00:49;;;;;;;2.00;1.00;;;19.30;66.50;;;;;;4974580;28;20881;-73
2023/10/14 15:03:16;;;;;;;2.00;1.00;;;18.60;68.50;;;;;;4974780;28;20426;-73
2023/10/14 15:05:43;;;;;;;1.90;1.07;;;18.20;69.50;;;;;;4974701;28;20542;-73
2023/10/14 15:08:12;;;;;;;2.90;1.33;;;17.70;70.20;;;;;;4974930;28;20455;-72
2023/10/14 15:10:42;;;;;;;4.63;1.80;;;17.10;70.40;;;;;;4974733;28;20450;-73
2023/10/14 15:13:10;;;;;;;2.20;1.70;;;16.80;72.20;;;;;;4975716;28;20441;-73
2023/10/14 15:15:38;;;;;;;2.00;1.27;;;16.60;73.00;;;;;;4974679;28;20453;-73
2023/10/14 15:18:07;;;;;;;3.00;1.30;;;16.40;72.60;;;;;;4974643;28;20473;-72
2023/10/14 15:20:34;;;;;;;2.40;1.37;;;16.20;72.10;;;;;;4974658;28;20465;-72
2023/10/14 15:23:02;;;;;;;3.27;1.60;;;15.80;73.00;;;;;;4974586;28;20450;-72
2023/10/14 15:25:36;;;;;;;2.27;1.37;;;15.50;72.70;;;;;;4974454;28;20494;-73
2023/10/14 15:28:03;;;;;;;2.50;1.30;;;15.30;73.50;;;;;;4975331;28;20435;-73
2023/10/14 15:30:30;;;;;;;2.80;1.50;;;15.20;73.00;;;;;;4974408;28;20449;-73
2023/10/14 15:32:57;;;;;;;2.50;1.30;;;15.00;74.80;;;;;;4974541;28;20453;-72
2023/10/14 15:35:26;;;;;;;2.57;1.40;;;15.00;74.20;;;;;;4974518;28;20446;-73
2023/10/14 15:37:56;;;;;;;4.77;1.90;;;14.80;74.40;;;;;;4974451;28;20504;-72
2023/10/14 15:40:22;;;;;;;3.00;1.50;;;14.80;74.10;;;;;;4974429;28;20450;-72
2023/10/14 15:42:51;;;;;;;2.77;1.57;;;14.70;74.00;;;;;;4974458;28;20457;-73
2023/10/14 15:45:23;;;;;;;2.77;1.60;;;14.70;74.70;;;;;;4974260;28;20518;-72
2023/10/14 15:47:52;;;;;;;2.90;1.60;;;14.70;75.00;;;;;;4974475;28;20430;-72
2023/10/14 15:50:19;;;;;;;3.77;1.80;;;14.60;74.90;;;;;;4974425;28;20461;-72
2023/10/14 15:52:49;;;;;;;4.70;1.60;;;14.70;74.90;;;;;;4974182;28;20839;-73
2023/10/14 15:55:17;;;;;;;2.47;1.63;;;14.70;73.10;;;;;;4974344;28;20529;-73
2023/10/14 15:57:44;;;;;;;3.10;1.60;;;14.60;73.40;;;;;;4974428;28;20442;-73
2023/10/14 16:00:22;;;;;;;3.00;1.80;;;14.50;74.80;;;;;;4974473;28;20482;-72
2023/10/14 16:02:50;;;;;;;3.70;1.40;;;14.50;74.10;;;;;;4974150;28;20944;-72
2023/10/14 16:05:16;;;;;;;3.93;1.70;;;14.30;74.20;;;;;;4974275;28;20496;-73
2023/10/14 16:07:43;;;;;;;3.30;1.70;;;14.20;74.60;;;;;;4974315;28;20484;-72
2023/10/14 16:10:12;;;;;;;4.27;2.33;;;14.30;74.60;;;;;;4974408;28;20540;-73
2023/10/14 16:12:39;;;;;;;2.50;1.40;;;14.20;74.90;;;;;;4974418;28;20466;-72
2023/10/14 16:15:07;;;;;;;2.70;1.80;;;14.10;75.80;;;;;;4997045;23;20454;-75
2023/10/14 16:17:34;;;;;;;3.70;2.00;;;13.90;74.90;;;;;;4974032;28;20422;-76
2023/10/14 16:20:02;;;;;;;4.27;1.83;;;13.90;75.70;;;;;;4974004;28;20446;-76
2023/10/14 16:22:28;;;;;;;3.80;1.70;;;13.90;76.20;;;;;;4973992;28;20446;-76
2023/10/14 16:24:55;;;;;;;5.17;1.60;;;14.00;76.60;;;;;;4973837;28;20513;-75
2023/10/14 16:27:23;;;;;;;5.43;2.77;;;14.00;76.10;;;;;;4974196;28;20456;-75
2023/10/14 16:29:50;;;;;;;3.47;1.57;;;14.10;74.90;;;;;;4973937;28;20845;-75
2023/10/14 16:32:17;;;;;;;3.23;1.70;;;14.20;75.40;;;;;;4973901;28;20453;-75
2023/10/14 16:34:43;;;;;;;4.07;1.93;;;14.20;75.20;;;;;;4973858;28;20894;-75
2023/10/14 16:37:10;;;;;;;4.90;1.87;;;14.30;75.00;;;;;;4973438;28;20832;-76
2023/10/14 16:39:37;;;;;;;2.40;1.40;;;14.30;75.50;;;;;;4975480;28;20469;-76
2023/10/14 16:42:03;;;;;;;3.47;1.60;;;14.30;74.90;;;;;;4977023;28;20860;-75
2023/10/14 16:44:31;;;;;;;2.93;1.83;;;14.30;73.90;;;;;;4977171;28;20494;-75
2023/10/14 16:46:59;;;;;;;3.10;1.67;;;14.30;74.30;;;;;;4977129;28;20466;-75
2023/10/14 16:49:30;;;;;;;4.50;1.80;;;14.20;74.40;;;;;;4977163;28;20454;-74
2023/10/14 16:51:56;;;;;;;3.80;2.20;;;14.20;74.90;;;;;;4977130;28;20433;-73
2023/10/14 16:54:23;;;;;;;3.10;1.80;;;14.20;74.80;;;;;;4977104;28;20461;-76
2023/10/14 16:56:50;;;;;;;5.97;1.97;;;14.10;74.00;;;;;;4976963;28;20470;-76
2023/10/14 16:59:16;;;;;;;2.30;1.30;;;14.20;74.50;;;;;;4976974;28;20442;-75